createdAt,value
2024-01-06T00:02:00.369Z,100723.19
2024-01-06T00:04:30.046Z,100710.72
2024-01-06T00:06:58.536Z,100720.06
2024-01-06T00:09:27.393Z,100721.47
2024-01-06T00:11:56.217Z,100727.00
2024-01-06T00:14:25.106Z,100726.28
2024-01-06T00:16:53.510Z,100727.41
2024-01-06T00:19:23.949Z,100729.41
2024-01-06T00:21:52.409Z,100735.06
2024-01-06T00:24:21.199Z,100738.88
2024-01-06T00:26:49.727Z,100745.53
2024-01-06T00:29:18.452Z,100734.91
2024-01-06T00:31:47.143Z,100739.31
2024-01-06T00:34:16.058Z,100733.63
2024-01-06T00:36:45.887Z,100733.50
2024-01-06T00:39:14.707Z,100730.69
2024-01-06T00:41:43.171Z,100733.81
2024-01-06T00:44:11.985Z,100733.38
2024-01-06T00:46:41.529Z,100727.16
2024-01-06T00:49:10.606Z,100728.84
2024-01-06T00:51:40.277Z,100738.03
2024-01-06T00:54:10.351Z,100735.34
2024-01-06T00:56:38.627Z,100736.63
2024-01-06T00:59:07.634Z,100740.03
2024-01-06T01:01:36.616Z,100737.06
2024-01-06T01:04:06.325Z,100750.91
2024-01-06T01:06:34.825Z,100742.44
2024-01-06T01:09:03.762Z,100748.66
2024-01-06T01:11:33.919Z,100753.19
2024-01-06T01:14:02.687Z,100750.19
2024-01-06T01:16:33.486Z,100756.72
2024-01-06T01:19:03.292Z,100759.28
2024-01-06T01:21:32.159Z,100752.06
2024-01-06T01:24:01.109Z,100759.97
2024-01-06T01:26:29.393Z,100769.31
2024-01-06T01:28:59.834Z,100754.16
2024-01-06T01:31:28.296Z,100756.59
2024-01-06T01:33:57.350Z,100758.56
2024-01-06T01:36:28.922Z,100759.13
2024-01-06T01:38:57.834Z,100747.53
2024-01-06T01:41:27.733Z,100746.53
2024-01-06T01:43:59.689Z,100755.72
2024-01-06T01:46:31.930Z,100768.47
2024-01-06T01:49:03.204Z,100770.16
2024-01-06T01:51:33.319Z,100770.59
2024-01-06T01:54:03.636Z,100769.31
2024-01-06T01:56:35.374Z,100775.25
2024-01-06T01:59:08.026Z,100773.28
2024-01-06T02:01:38.210Z,100767.19
2024-01-06T02:04:07.119Z,100775.69
2024-01-06T02:06:36.317Z,100764.34
2024-01-06T02:09:05.324Z,100776.97
2024-01-06T02:11:33.697Z,100764.09
2024-01-06T02:14:02.333Z,100772.16
2024-01-06T02:16:30.689Z,100783.91
2024-01-06T02:19:00.815Z,100780.06
2024-01-06T02:21:30.204Z,100785.44
2024-01-06T02:24:00.303Z,100782.75
2024-01-06T02:26:28.582Z,100784.59
2024-01-06T02:28:57.241Z,100778.34
2024-01-06T02:31:25.542Z,100771.56
2024-01-06T02:33:54.538Z,100790.56
2024-01-06T02:36:22.894Z,100786.59
2024-01-06T02:38:51.885Z,100755.88
2024-01-06T02:41:21.609Z,100775.97
2024-01-06T02:43:50.308Z,100778.09
2024-01-06T02:46:18.630Z,100767.75
2024-01-06T02:48:47.538Z,100752.19
2024-01-06T02:51:15.988Z,100761.81
2024-01-06T02:53:44.581Z,100772.97
2024-01-06T02:56:13.081Z,100758.00
2024-01-06T02:58:43.035Z,100777.81
2024-01-06T03:01:13.539Z,100774.97
2024-01-06T03:03:42.368Z,100773.97
2024-01-06T03:06:10.773Z,100770.28
2024-01-06T03:08:39.483Z,100761.38
2024-01-06T03:11:07.749Z,100782.88
2024-01-06T03:13:36.504Z,100796.50
2024-01-06T03:16:07.639Z,100787.16
2024-01-06T03:18:36.434Z,100791.97
2024-01-06T03:21:05.226Z,100796.50
2024-01-06T03:23:33.839Z,100795.94
2024-01-06T03:26:07.897Z,100801.88
2024-01-06T03:28:36.629Z,100740.59
2024-01-06T03:31:05.288Z,100791.09
2024-01-06T03:33:35.390Z,100796.22
2024-01-06T03:36:07.499Z,100796.34
2024-01-06T03:38:36.244Z,100788.25
2024-01-06T03:41:04.748Z,100791.66
2024-01-06T03:43:33.372Z,100784.13
2024-01-06T03:46:02.179Z,100788.47
2024-01-06T03:48:31.443Z,100766.72
2024-01-06T03:51:01.537Z,100750.25
2024-01-06T03:53:30.205Z,100786.75
2024-01-06T03:55:58.466Z,100796.50
2024-01-06T03:58:27.197Z,100804.44
2024-01-06T04:00:55.647Z,100796.66
2024-01-06T04:03:24.510Z,100809.13
2024-01-06T04:05:52.912Z,100813.13
2024-01-06T04:08:23.008Z,100820.19
2024-01-06T04:10:51.552Z,100831.13
2024-01-06T04:13:20.600Z,100833.22
2024-01-06T04:15:49.070Z,100833.41
2024-01-06T04:18:17.944Z,100825.03
2024-01-06T04:20:46.671Z,100841.63
2024-01-06T04:23:15.365Z,100823.91
2024-01-06T04:25:45.053Z,100843.44
2024-01-06T04:28:13.635Z,100830.88
2024-01-06T04:30:42.040Z,100835.25
2024-01-06T04:33:10.831Z,100835.94
2024-01-06T04:35:39.492Z,100839.19
2024-01-06T04:38:08.302Z,100846.13
2024-01-06T04:40:36.627Z,100840.03
2024-01-06T04:43:06.710Z,100844.31
2024-01-06T04:45:35.028Z,100833.13
2024-01-06T04:48:03.824Z,100841.06
2024-01-06T04:50:32.189Z,100812.88
2024-01-06T04:53:01.075Z,100843.75
2024-01-06T04:55:29.814Z,100804.84
2024-01-06T04:57:58.428Z,100840.22
2024-01-06T05:00:28.386Z,100853.97
2024-01-06T05:02:57.174Z,100858.22
2024-01-06T05:05:25.623Z,100856.13
2024-01-06T05:07:54.650Z,100854.66
2024-01-06T05:10:23.076Z,100859.06
2024-01-06T05:12:51.725Z,100863.16
2024-01-06T05:15:20.752Z,100867.00
2024-01-06T05:17:51.054Z,100857.78
2024-01-06T05:20:19.484Z,100866.03
2024-01-06T05:22:48.148Z,100862.19
2024-01-06T05:25:16.416Z,100873.09
2024-01-06T05:27:45.361Z,100870.25
2024-01-06T05:30:14.000Z,100876.47
2024-01-06T05:32:42.738Z,100872.69
2024-01-06T05:35:12.654Z,100879.34
2024-01-06T05:37:41.371Z,100882.31
2024-01-06T05:40:10.792Z,100864.16
2024-01-06T05:42:39.508Z,100878.91
2024-01-06T05:45:08.362Z,100882.28
2024-01-06T05:47:37.559Z,100860.22
2024-01-06T05:50:07.199Z,100883.28
2024-01-06T05:52:37.002Z,100895.19
2024-01-06T05:55:06.125Z,100900.56
2024-01-06T05:57:34.772Z,100904.53
2024-01-06T06:00:03.555Z,100897.88
2024-01-06T06:02:33.076Z,100909.19
2024-01-06T06:05:01.465Z,100905.41
2024-01-06T06:07:30.162Z,100913.91
2024-01-06T06:10:00.212Z,100913.31
2024-01-06T06:12:29.113Z,100891.94
2024-01-06T06:14:57.682Z,100921.53
2024-01-06T06:17:26.963Z,100915.19
2024-01-06T06:19:55.308Z,100922.81
2024-01-06T06:22:24.268Z,100912.75
2024-01-06T06:24:53.068Z,100921.97
2024-01-06T06:27:23.219Z,100921.81
2024-01-06T06:29:51.809Z,100925.94
2024-01-06T06:32:20.545Z,100938.81
2024-01-06T06:34:48.889Z,100942.09
2024-01-06T06:37:17.655Z,100952.44
2024-01-06T06:39:46.160Z,100945.47
2024-01-06T06:42:15.015Z,100957.94
2024-01-06T06:44:44.741Z,100957.38
2024-01-06T06:47:13.388Z,100885.34
2024-01-06T06:49:42.762Z,100966.44
2024-01-06T06:52:13.581Z,100973.38
2024-01-06T06:54:41.907Z,100978.88
2024-01-06T06:57:10.653Z,100963.63
2024-01-06T06:59:38.997Z,100968.72
2024-01-06T07:02:09.385Z,100962.78
2024-01-06T07:04:37.559Z,100970.00
2024-01-06T07:07:05.998Z,100970.72
2024-01-06T07:09:34.329Z,100969.13
2024-01-06T07:12:03.089Z,100979.66
2024-01-06T07:14:31.344Z,100975.53
2024-01-06T07:17:00.255Z,100978.94
2024-01-06T07:19:30.058Z,100938.81
2024-01-06T07:21:58.897Z,100969.13
2024-01-06T07:24:27.970Z,100981.91
2024-01-06T07:26:56.847Z,100977.22
2024-01-06T07:29:25.143Z,100987.56
2024-01-06T07:31:53.998Z,100968.03
2024-01-06T07:34:22.499Z,100968.31
2024-01-06T07:36:52.674Z,100972.13
2024-01-06T07:39:21.245Z,100983.75
2024-01-06T07:41:49.960Z,100976.22
2024-01-06T07:44:23.791Z,100986.00
2024-01-06T07:46:52.622Z,100986.31
2024-01-06T07:49:21.477Z,100991.69
2024-01-06T07:51:50.377Z,101006.00
2024-01-06T07:54:20.168Z,100993.25
2024-01-06T07:56:48.840Z,100999.88
2024-01-06T07:59:17.167Z,100990.53
2024-01-06T08:01:45.948Z,100996.63
2024-01-06T08:04:14.523Z,101009.94
2024-01-06T08:06:43.357Z,101026.41
2024-01-06T08:09:11.725Z,101018.84
2024-01-06T08:11:47.417Z,101027.78
2024-01-06T08:14:17.953Z,101027.94
2024-01-06T08:16:47.339Z,100972.69
2024-01-06T08:19:16.084Z,100935.69
2024-01-06T08:21:45.162Z,101034.34
2024-01-06T08:24:14.008Z,101007.53
2024-01-06T08:26:44.220Z,101043.25
2024-01-06T08:29:12.573Z,101031.06
2024-01-06T08:31:41.645Z,101034.72
2024-01-06T08:34:13.333Z,101041.09
2024-01-06T08:36:43.852Z,101049.75
2024-01-06T08:39:12.747Z,101054.69
2024-01-06T08:41:41.460Z,101049.41
2024-01-06T08:44:12.651Z,101035.06
2024-01-06T08:46:41.511Z,101054.97
2024-01-06T08:49:10.006Z,101047.84
2024-01-06T08:51:38.906Z,101038.47
2024-01-06T08:54:07.460Z,101043.00
2024-01-06T08:56:36.513Z,101038.16
2024-01-06T08:59:04.837Z,101053.31
2024-01-06T09:01:37.323Z,101059.84
2024-01-06T09:04:08.101Z,101066.69
2024-01-06T09:06:37.133Z,101070.09
2024-01-06T09:09:06.483Z,101071.50
2024-01-06T09:11:35.280Z,101067.94
2024-01-06T09:14:03.864Z,101064.94
2024-01-06T09:16:32.630Z,101069.91
2024-01-06T09:19:02.531Z,101084.63
2024-01-06T09:21:31.319Z,101090.88
2024-01-06T09:23:59.796Z,101079.13
2024-01-06T09:26:28.768Z,101088.81
2024-01-06T09:28:57.203Z,101091.91
2024-01-06T09:31:26.696Z,101092.59
2024-01-06T09:33:55.623Z,101096.00
2024-01-06T09:36:26.379Z,101104.78
2024-01-06T09:38:54.998Z,100976.97
2024-01-06T09:41:24.250Z,101112.06
2024-01-06T09:43:52.986Z,101093.88
2024-01-06T09:46:27.372Z,101107.75
2024-01-06T09:48:56.756Z,101062.00
2024-01-06T09:51:28.397Z,101113.59
2024-01-06T09:54:01.026Z,101111.22
2024-01-06T09:56:31.829Z,101120.53
2024-01-06T09:59:00.478Z,101122.31
2024-01-06T10:01:29.399Z,100990.09
2024-01-06T10:03:58.209Z,101124.91
2024-01-06T10:06:28.760Z,101132.63
2024-01-06T10:08:57.387Z,101128.47
2024-01-06T10:11:26.262Z,101131.56
2024-01-06T10:13:55.396Z,101126.34
2024-01-06T10:16:24.690Z,101100.91
2024-01-06T10:18:54.557Z,101121.94
2024-01-06T10:21:24.320Z,101133.75
2024-01-06T10:23:56.792Z,101072.59
2024-01-06T10:26:25.759Z,101134.13
2024-01-06T10:28:54.091Z,101133.16
2024-01-06T10:31:22.937Z,101130.28
2024-01-06T10:33:51.728Z,101144.50
2024-01-06T10:36:21.841Z,101122.94
2024-01-06T10:38:50.137Z,101143.34
2024-01-06T10:41:21.676Z,101131.84
2024-01-06T10:43:53.124Z,101140.19
2024-01-06T10:46:22.419Z,101135.78
2024-01-06T10:48:52.837Z,101135.94
2024-01-06T10:51:24.230Z,101141.34
2024-01-06T10:53:53.240Z,101104.31
2024-01-06T10:56:27.448Z,101144.75
2024-01-06T10:58:56.203Z,101142.50
2024-01-06T11:01:29.208Z,101137.63
2024-01-06T11:03:59.625Z,101127.16
2024-01-06T11:06:30.499Z,101122.72
2024-01-06T11:09:16.091Z,101127.38
2024-01-06T11:11:46.542Z,101131.91
2024-01-06T11:14:26.526Z,101132.41
2024-01-06T11:16:56.537Z,101127.00
2024-01-06T11:19:49.317Z,101134.53
2024-01-06T11:22:33.592Z,101133.53
2024-01-06T11:25:08.668Z,101128.53
2024-01-06T11:27:39.096Z,101135.84
2024-01-06T11:30:09.640Z,101125.03
2024-01-06T11:32:40.971Z,101130.56
2024-01-06T11:35:11.965Z,101130.72
2024-01-06T11:37:54.279Z,101141.66
2024-01-06T11:40:29.748Z,101133.56
2024-01-06T11:43:06.013Z,101141.53
2024-01-06T11:45:34.978Z,101128.72
2024-01-06T11:48:05.866Z,101147.13
2024-01-06T11:50:36.271Z,101146.06
2024-01-06T11:53:11.533Z,101077.28
2024-01-06T11:55:44.004Z,101112.47
2024-01-06T11:58:21.914Z,101138.81
2024-01-06T12:00:58.621Z,101142.69
2024-01-06T12:03:31.963Z,101138.34
2024-01-06T12:06:07.402Z,101089.72
2024-01-06T12:08:36.329Z,101162.16
2024-01-06T12:11:05.535Z,101142.91
2024-01-06T12:13:38.081Z,101143.69
2024-01-06T12:16:08.127Z,101153.31
2024-01-06T12:18:37.354Z,101151.84
2024-01-06T12:21:06.738Z,101157.53
2024-01-06T12:23:37.944Z,101121.94
2024-01-06T12:26:07.237Z,101098.22
2024-01-06T12:28:42.881Z,101159.66
2024-01-06T12:31:13.451Z,101164.06
2024-01-06T12:33:43.681Z,101153.41
2024-01-06T12:36:21.281Z,101153.91
2024-01-06T12:38:57.603Z,101170.06
2024-01-06T12:41:26.530Z,101161.69
2024-01-06T12:43:59.991Z,101176.31
2024-01-06T12:46:29.172Z,101179.63
2024-01-06T12:48:58.718Z,101147.13
2024-01-06T12:51:27.481Z,101180.94
2024-01-06T12:53:56.182Z,101162.16
2024-01-06T12:56:30.281Z,101145.31
2024-01-06T12:59:01.284Z,101152.84
2024-01-06T13:01:30.799Z,101086.78
2024-01-06T13:04:02.039Z,101142.72
2024-01-06T13:06:32.435Z,101161.72
2024-01-06T13:09:03.568Z,101185.44
2024-01-06T13:11:32.286Z,101181.00
2024-01-06T13:14:03.119Z,101188.22
2024-01-06T13:16:33.180Z,101178.44
2024-01-06T13:19:03.697Z,101185.25
2024-01-06T13:21:33.233Z,101199.06
2024-01-06T13:24:03.835Z,101197.63
2024-01-06T13:26:35.762Z,101201.59
2024-01-06T13:29:13.220Z,101035.44
2024-01-06T13:31:42.176Z,101203.16
2024-01-06T13:34:11.242Z,101205.75
2024-01-06T13:36:40.080Z,101202.50
2024-01-06T13:39:09.881Z,101210.88
2024-01-06T13:41:38.433Z,101210.19
2024-01-06T13:44:07.519Z,101210.31
2024-01-06T13:46:38.354Z,101218.38
2024-01-06T13:49:07.542Z,101212.88
2024-01-06T13:51:36.297Z,101217.16
2024-01-06T13:54:05.322Z,101213.47
2024-01-06T13:56:34.250Z,101228.94
2024-01-06T13:59:03.101Z,101228.91
2024-01-06T14:01:31.992Z,101225.66
2024-01-06T14:04:02.911Z,101182.94
2024-01-06T14:06:32.224Z,101213.19
2024-01-06T14:09:02.512Z,101227.66
2024-01-06T14:11:32.326Z,101229.34
2024-01-06T14:14:01.081Z,101193.06
2024-01-06T14:16:30.176Z,101215.31
2024-01-06T14:18:59.349Z,101229.09
2024-01-06T14:21:29.571Z,101230.50
2024-01-06T14:23:59.794Z,101222.13
2024-01-06T14:26:28.478Z,101228.66
2024-01-06T14:28:57.267Z,101182.00
2024-01-06T14:31:26.156Z,101225.25
2024-01-06T14:33:57.332Z,101225.97
2024-01-06T14:36:28.867Z,101229.13
2024-01-06T14:38:57.773Z,101240.75
2024-01-06T14:41:26.315Z,101233.94
2024-01-06T14:43:55.234Z,101238.19
2024-01-06T14:46:23.691Z,101243.88
2024-01-06T14:48:52.933Z,101243.91
2024-01-06T14:51:21.818Z,101231.41
2024-01-06T14:53:52.115Z,101249.69
2024-01-06T14:56:20.522Z,101256.81
2024-01-06T14:58:49.420Z,101238.47
2024-01-06T15:01:18.691Z,101236.78
2024-01-06T15:03:47.570Z,101164.41
2024-01-06T15:06:19.679Z,101253.41
2024-01-06T15:08:49.709Z,101234.81
2024-01-06T15:11:23.528Z,101257.78
2024-01-06T15:13:52.800Z,101244.16
2024-01-06T15:16:21.416Z,101235.63
2024-01-06T15:18:51.415Z,101235.81
2024-01-06T15:21:24.305Z,101251.25
2024-01-06T15:23:53.295Z,101252.81
2024-01-06T15:26:25.422Z,101263.75
2024-01-06T15:28:54.676Z,101271.00
2024-01-06T15:31:23.352Z,101276.97
2024-01-06T15:33:52.647Z,101268.16
2024-01-06T15:36:21.097Z,101275.69
2024-01-06T15:38:49.994Z,101291.59
2024-01-06T15:41:18.472Z,101277.97
2024-01-06T15:43:48.895Z,101283.78
2024-01-06T15:46:18.528Z,101293.00
2024-01-06T15:48:47.625Z,101289.88
2024-01-06T15:51:16.235Z,101300.69
2024-01-06T15:53:45.090Z,101286.34
2024-01-06T15:56:13.574Z,101309.09
2024-01-06T15:58:42.562Z,101297.56
2024-01-06T16:01:12.554Z,101312.78
2024-01-06T16:03:42.560Z,101306.69
2024-01-06T16:06:11.755Z,101307.69
2024-01-06T16:08:40.563Z,101310.22
2024-01-06T16:11:09.413Z,101311.50
2024-01-06T16:13:38.308Z,101278.41
2024-01-06T16:16:07.711Z,101308.22
2024-01-06T16:18:38.279Z,101306.53
2024-01-06T16:21:06.880Z,101301.88
2024-01-06T16:23:35.711Z,101278.72
2024-01-06T16:26:05.427Z,101308.13
2024-01-06T16:28:35.267Z,101307.97
2024-01-06T16:31:03.742Z,101324.59
2024-01-06T16:33:45.614Z,101318.91
2024-01-06T16:36:14.072Z,101315.78
2024-01-06T16:38:42.915Z,101314.78
2024-01-06T16:41:11.337Z,101286.50
2024-01-06T16:43:40.262Z,101325.72
2024-01-06T16:46:09.590Z,101328.72
2024-01-06T16:48:38.575Z,101303.31
2024-01-06T16:51:10.090Z,101333.41
2024-01-06T16:53:39.025Z,101336.22
2024-01-06T16:56:07.792Z,101329.56
2024-01-06T16:58:37.136Z,101339.09
2024-01-06T17:01:07.079Z,101364.69
2024-01-06T17:03:36.044Z,101358.69
2024-01-06T17:06:04.977Z,101361.97
2024-01-06T17:08:35.075Z,101348.72
2024-01-06T17:11:03.595Z,101356.84
2024-01-06T17:13:32.401Z,101357.28
2024-01-06T17:16:01.231Z,101370.34
2024-01-06T17:18:30.559Z,101367.94
2024-01-06T17:20:59.415Z,101376.31
2024-01-06T17:23:28.416Z,101369.63
2024-01-06T17:25:58.273Z,101342.94
2024-01-06T17:28:27.873Z,101375.91
2024-01-06T17:31:00.200Z,101390.50
2024-01-06T17:33:29.920Z,101383.00
2024-01-06T17:35:58.820Z,101387.81
2024-01-06T17:38:27.661Z,101375.47
2024-01-06T17:40:57.568Z,101381.88
2024-01-06T17:43:26.371Z,101371.94
2024-01-06T17:45:54.968Z,101391.69
2024-01-06T17:48:24.178Z,101376.50
2024-01-06T17:50:53.399Z,101400.34
2024-01-06T17:53:22.066Z,101396.06
2024-01-06T17:55:50.686Z,101403.19
2024-01-06T17:58:20.915Z,101417.25
2024-01-06T18:00:49.281Z,101423.81
2024-01-06T18:03:19.078Z,101420.97
2024-01-06T18:05:48.321Z,101424.97
2024-01-06T18:08:17.096Z,101417.56
2024-01-06T18:10:45.671Z,101382.72
2024-01-06T18:13:14.819Z,101417.84
2024-01-06T18:15:45.020Z,101424.66
2024-01-06T18:18:14.104Z,101417.84
2024-01-06T18:20:47.895Z,101399.22
2024-01-06T18:23:18.412Z,101412.56
2024-01-06T18:25:47.162Z,101417.25
2024-01-06T18:28:15.947Z,101432.63
2024-01-06T18:30:46.082Z,101418.97
2024-01-06T18:33:14.965Z,101427.94
2024-01-06T18:35:43.392Z,101432.47
2024-01-06T18:38:12.156Z,101431.06
2024-01-06T18:40:40.874Z,101443.97
2024-01-06T18:43:09.708Z,101412.13
2024-01-06T18:45:38.993Z,101441.13
2024-01-06T18:48:11.360Z,101436.59
2024-01-06T18:50:41.258Z,101444.81
2024-01-06T18:53:10.090Z,101449.09
2024-01-06T18:55:38.572Z,101448.69
2024-01-06T18:58:07.551Z,101451.94
2024-01-06T19:00:36.106Z,101424.19
2024-01-06T19:03:05.219Z,101460.31
2024-01-06T19:05:37.137Z,101481.63
2024-01-06T19:08:06.423Z,101478.19
2024-01-06T19:10:36.724Z,101475.94
2024-01-06T19:13:09.581Z,101479.50
2024-01-06T19:15:40.133Z,101474.25
2024-01-06T19:18:09.366Z,101466.41
2024-01-06T19:20:39.323Z,101470.53
2024-01-06T19:23:09.930Z,101465.53
2024-01-06T19:25:38.772Z,101482.31
2024-01-06T19:28:08.798Z,101473.78
2024-01-06T19:30:37.513Z,101464.66
2024-01-06T19:33:10.913Z,101480.88
2024-01-06T19:35:40.885Z,101476.31
2024-01-06T19:38:09.907Z,101482.03
2024-01-06T19:40:38.232Z,101492.13
2024-01-06T19:43:07.226Z,101499.44
2024-01-06T19:45:35.745Z,101504.84
2024-01-06T19:48:05.415Z,101506.50
2024-01-06T19:50:34.528Z,101509.22
2024-01-06T19:53:05.921Z,101506.81
2024-01-06T19:55:34.389Z,101511.47
2024-01-06T19:58:03.555Z,101516.88
2024-01-06T20:00:33.177Z,101518.44
2024-01-06T20:03:02.852Z,101500.81
2024-01-06T20:05:31.933Z,101478.72
2024-01-06T20:08:01.968Z,101514.03
2024-01-06T20:10:32.104Z,101515.72
2024-01-06T20:13:00.949Z,101467.59
2024-01-06T20:15:29.565Z,101502.03
2024-01-06T20:17:58.343Z,101509.31
2024-01-06T20:20:26.835Z,101504.72
2024-01-06T20:22:55.751Z,101448.25
2024-01-06T20:25:24.491Z,101503.75
2024-01-06T20:27:56.175Z,101494.34
2024-01-06T20:30:24.718Z,101495.88
2024-01-06T20:32:53.731Z,101501.44
2024-01-06T20:35:22.405Z,101497.03
2024-01-06T20:37:52.762Z,101509.25
2024-01-06T20:40:21.437Z,101508.50
2024-01-06T20:42:50.129Z,101490.13
2024-01-06T20:45:20.282Z,101508.06
2024-01-06T20:47:50.240Z,101500.56
2024-01-06T20:50:19.615Z,101502.41
2024-01-06T20:52:48.608Z,101501.00
2024-01-06T20:55:17.372Z,101510.50
2024-01-06T20:57:46.813Z,101511.53
2024-01-06T21:00:18.060Z,101513.25
2024-01-06T21:02:48.201Z,101517.06
2024-01-06T21:05:16.991Z,101520.88
2024-01-06T21:07:48.730Z,101519.38
2024-01-06T21:10:18.782Z,101513.66
2024-01-06T21:12:47.735Z,101518.53
2024-01-06T21:15:16.620Z,101508.34
2024-01-06T21:17:45.790Z,101520.06
2024-01-06T21:20:24.496Z,101511.13
2024-01-06T21:22:53.386Z,101512.84
2024-01-06T21:25:24.778Z,101409.72
2024-01-06T21:27:55.761Z,101524.22
2024-01-06T21:30:29.771Z,101518.38
2024-01-06T21:33:02.474Z,101518.38
2024-01-06T21:35:32.840Z,101525.09
2024-01-06T21:38:05.216Z,101520.44
2024-01-06T21:40:34.221Z,101525.19
2024-01-06T21:43:03.690Z,101517.41
2024-01-06T21:45:32.442Z,101528.34
2024-01-06T21:48:01.255Z,101529.78
2024-01-06T21:50:33.372Z,101535.47
2024-01-06T21:53:03.989Z,101536.19
2024-01-06T21:55:32.351Z,101535.34
2024-01-06T21:58:01.650Z,101534.66
2024-01-06T22:00:30.369Z,101530.06
2024-01-06T22:02:59.212Z,101537.53
2024-01-06T22:05:28.342Z,101536.59
2024-01-06T22:07:57.655Z,101541.59
2024-01-06T22:10:33.398Z,101524.41
2024-01-06T22:13:02.262Z,101525.72
2024-01-06T22:15:34.089Z,101499.38
2024-01-06T22:18:05.097Z,101548.03
2024-01-06T22:20:33.735Z,101548.06
2024-01-06T22:23:02.477Z,101544.19
2024-01-06T22:25:32.133Z,101553.41
2024-01-06T22:28:00.981Z,101562.41
2024-01-06T22:30:29.552Z,101562.53
2024-01-06T22:32:58.565Z,101542.94
2024-01-06T22:35:27.078Z,101565.03
2024-01-06T22:37:56.074Z,101529.13
2024-01-06T22:40:24.504Z,101557.81
2024-01-06T22:42:54.547Z,101563.31
2024-01-06T22:45:24.214Z,101565.16
2024-01-06T22:47:53.208Z,101577.75
2024-01-06T22:50:21.721Z,101574.84
2024-01-06T22:52:50.393Z,101574.44
2024-01-06T22:55:18.913Z,101575.63
2024-01-06T22:57:47.872Z,101558.81
2024-01-06T23:00:29.119Z,101583.03
2024-01-06T23:02:59.364Z,101584.00
2024-01-06T23:05:28.268Z,101589.88
2024-01-06T23:07:57.563Z,101507.75
2024-01-06T23:10:26.138Z,101549.84
2024-01-06T23:12:55.852Z,101589.06
2024-01-06T23:15:26.149Z,101592.09
2024-01-06T23:17:55.246Z,101597.25
2024-01-06T23:20:23.962Z,101594.31
2024-01-06T23:22:52.854Z,101600.59
2024-01-06T23:25:21.585Z,101586.84
2024-01-06T23:27:50.505Z,101607.72
2024-01-06T23:30:19.673Z,101607.16
2024-01-06T23:32:50.601Z,101618.97
2024-01-06T23:35:19.620Z,101613.97
2024-01-06T23:37:51.972Z,101615.72
2024-01-06T23:40:20.730Z,101619.28
2024-01-06T23:42:49.718Z,101618.66
2024-01-06T23:45:18.576Z,101619.75
2024-01-06T23:47:47.738Z,101607.44
2024-01-06T23:50:17.663Z,101639.84
2024-01-06T23:52:46.800Z,101634.56
2024-01-06T23:55:16.632Z,101640.94
2024-01-06T23:57:45.448Z,101640.81
